• Join FlightAware (Why Join?)
  • Login
  • US Flag 
01:25AM EST


 

Airport Tracker/Info


-or-


 

Live Flight TrackerFlight Track Log ✈ UAL395 ✈ 25-Jun-2013 ✈ KIAD - KORD

Flight Track Log - Related Links

Times and Time Zones

All times are in EDT time to prevent confusion due to time zone crossing. See the UAL395 flight status page for this flight to view local times or setup timezone preferences in your user account.

Time Position Orientation Groundspeed Altitude Reporting Facility
EDT Latitude Longitude Course Direction KTS MPH feet Rate Location/Type
02:37PM 38.9500 -77.5167 270° West 164 189 1,500  Level Potomac TRACON
02:38PM 38.9333 -77.5667 247° West 216 249 3,100 2,460 Climbing Potomac TRACON
02:39PM 38.8947 -77.7039 250° West 257 296 7,600 2,880 Climbing Washington Center
02:40PM 38.8922 -78.0021 288° West  Level FlightAware Approximate
02:41PM 38.9263 -78.1386 288° West  Level FlightAware Approximate
02:41PM 38.8825 -77.8078 261° West 276 318 10,600  Level Washington Center
02:42PM 38.9500 -78.2744 270° West  Level FlightAware Approximate
02:42PM 38.8642 -77.9058 257° West 287 330 13,700  Level Washington Center
02:42PM 38.8392 -78.0064 252° West 297 342 16,500 2,220 Climbing Washington Center
02:43PM 38.8872 -78.0958 305° West 283 326 18,200 1,740 Climbing Washington Center
02:45PM 38.9336 -78.1775 306° West 289 333 20,100 1,860 Climbing Washington Center
02:46PM 38.9644 -78.2853 290° West 306 352 22,000 1,980 Climbing Washington Center
02:46PM 38.9681 -78.4083 272° West 316 364 24,000 1,440 Climbing Washington Center
02:47PM 38.9711 -78.5339 272° West 342 394 24,900 900 Climbing Washington Center
02:48PM 38.9761 -78.6731 273° West 372 428 25,800 960 Climbing Washington Center
02:49PM 38.9786 -78.8172 271° West 395 455 26,900 660 Climbing Washington Center
02:50PM 38.9847 -78.9697 273° West 415 478 27,200 900 Climbing Washington Center
02:51PM 38.9867 -79.1247 271° West 427 491 28,800 1,440 Climbing Washington Center
02:52PM 38.9922 -79.2828 273° West 439 505 30,100 1,140 Climbing Washington Center
02:53PM 38.9956 -79.4431 272° West 445 512 31,100 1,260 Climbing Washington Center
02:54PM 39.0000 -79.6250 272° West 464 534 32,700 1,020 Climbing Washington Center
02:56PM 39.0028 -79.7881 271° West 464 534 33,200 840 Climbing Washington Center
02:56PM 39.0011 -79.8958 269° West 447 514 34,200 1,260 Climbing Indianapolis Center
02:57PM 39.0042 -80.0503 272° West 447 514 35,400 1,080 Climbing Indianapolis Center
02:58PM 39.0067 -80.2203 271° West 441 507 36,500 1,080 Climbing Indianapolis Center
02:59PM 39.0089 -80.3783 271° West 442 509 37,700 660 Climbing Indianapolis Center
03:00PM 39.0117 -80.5339 271° West 438 504 37,900 120 Climbing Indianapolis Center
03:01PM 39.0142 -80.6928 271° West 444 511 38,000  Climbing Indianapolis Center
03:02PM 39.0356 -80.8478 280° West 446 513 38,000 -60 Level Indianapolis Center
03:03PM 39.1017 -81.0219 296° West 456 525 37,900  Descending Indianapolis Center
03:04PM 39.1614 -81.1658 298° West 460 529 38,000  Climbing Indianapolis Center
03:06PM 39.2189 -81.3069 298° West 452 520 37,900 -60 Descending Indianapolis Center
03:07PM 39.2769 -81.4494 298° West 452 520 37,900  Level Indianapolis Center
03:08PM 39.3353 -81.5947 297° West 455 524 38,000  Climbing Indianapolis Center
03:09PM 39.4053 -81.7681 298° West 456 525 38,000 -60 Level Indianapolis Center
03:10PM 39.4642 -81.9128 298° West 457 526 37,900  Descending Indianapolis Center
03:11PM 39.4953 -82.0650 285° West 439 505 38,000  Climbing Indianapolis Center
03:12PM 39.5078 -82.2394 275° West 441 507 37,900 -60 Descending Indianapolis Center
03:13PM 39.5194 -82.3994 275° West 443 510 37,900  Level Indianapolis Center
03:14PM 39.5333 -82.5592 276° West 442 509 37,900  Level Indianapolis Center
03:15PM 39.5472 -82.7169 277° West 439 505 37,900  Level Indianapolis Center
03:16PM 39.5597 -82.8775 276° West 442 509 37,900  Level Indianapolis Center
03:17PM 39.5733 -83.0383 276° West 443 510 37,900  Level Indianapolis Center
03:18PM 39.5869 -83.1992 276° West 444 511 38,000  Climbing Indianapolis Center
03:19PM 39.5953 -83.3603 274° West 441 507 37,900 -60 Descending Indianapolis Center
03:20PM 39.5961 -83.5514 270° West 443 510 37,900  Level Indianapolis Center
03:21PM 39.5969 -83.7156 270° West 445 512 37,900  Level Indianapolis Center
03:22PM 39.5975 -83.8792 270° West 447 514 37,900  Level Indianapolis Center
03:23PM 39.5961 -84.0425 269° West 448 516 37,900  Level Indianapolis Center
03:24PM 39.6111 -84.2047 277° West 446 513 37,900  Level Indianapolis Center
03:25PM 39.6650 -84.3528 295° West 448 516 37,900  Level Indianapolis Center
03:26PM 39.7461 -84.4797 310° West 448 516 37,900 -480 Level Indianapolis Center
03:27PM 39.8628 -84.5533 334° Northwest 460 529 37,000 -1,080 Descending Indianapolis Center
03:28PM 39.9781 -84.6208 336° Northwest 452 520 35,700 -1,500 Descending Indianapolis Center
03:29PM 40.1131 -84.6983 336° Northwest 450 518 34,000 -900 Descending Indianapolis Center
03:30PM 40.2308 -84.7636 337° Northwest 453 521 33,900 -60 Descending Indianapolis Center
03:31PM 40.3450 -84.8278 337° Northwest 445 512 33,900  Level Indianapolis Center
03:32PM 40.4608 -84.8908 338° Northwest 444 511 33,900  Level Indianapolis Center
03:33PM 40.5658 -84.9517 336° Northwest 441 507 33,900 -300 Level Indianapolis Center
03:34PM 40.6619 -85.0464 323° Northwest 445 512 33,400 -1,440 Descending Indianapolis Center
03:36PM 40.7536 -85.1892 310° West 431 496 31,000 -1,680 Descending Indianapolis Center
03:37PM 40.8331 -85.3131 310° West 443 510 29,900 -2,220 Descending Indianapolis Center
03:38PM 40.9106 -85.4383 309° West 443 510 26,400 -2,400 Descending Indianapolis Center
03:39PM 40.9892 -85.5628 310° West 442 509 25,000 -780 Descending Indianapolis Center
03:40PM 41.0631 -85.6811 310° West 423 487 24,900 -60 Descending Indianapolis Center
03:41PM 41.1525 -85.8233 310° West 421 484 24,900  Level Indianapolis Center
03:42PM 41.2272 -85.9436 310° West 424 488 25,000 -360 Climbing Indianapolis Center
03:43PM 41.2878 -86.0742 302° West 421 484 24,200 -1,020 Descending Indianapolis Center
03:44PM 41.3047 -86.2178 279° West 398 458 22,900 -1,020 Descending Indianapolis Center
03:45PM 41.3100 -86.3633 273° West 396 456 22,200 -1,320 Descending Indianapolis Center
03:46PM 41.3192 -86.5756 273° West 376 433 19,700 -1,620 Descending Chicago Center
03:47PM 41.3947 -86.6853 313° West 400 460 18,200 -1,860 Descending Chicago Center
03:48PM 41.5031 -86.7594 333° Northwest 386 444 15,900 -2,520 Descending Chicago Center
03:49PM 41.5983 -86.7886 347° North 365 420 13,100 -1,920 Descending Chicago Center
03:50PM 41.6978 -86.7992 355° North 361 415 12,000 -540 Descending Chicago Center
03:51PM 41.7953 -86.8133 354° North 357 411 12,000 -900 Level Chicago Center
03:52PM 41.8856 -86.8514 343° North 352 405 10,200 -1,020 Descending Chicago Center
03:54PM 41.9367 -86.9750 299° West 318 366 10,000 -780 Descending Chicago Center
03:55PM 41.9731 -87.0611 300° West 277 319 8,600 -1,380 Descending Chicago Center
03:56PM 41.9814 -87.1564 277° West 266 306 7,200 -840 Descending Chicago Center
03:57PM 41.9836 -87.2467 272° West 245 282 6,900 -180 Descending Chicago Center
03:58PM 41.9833 -87.3408 270° West 215 247 6,900  Level Chicago Center
03:59PM 41.9822 -87.4203 269° West 215 247 6,900 -300 Level Chicago Center
04:00PM 41.9833 -87.4878 271° West 189 217 6,400 -780 Descending Chicago Center
04:01PM 41.9828 -87.5478 269° West 167 192 5,400 -900 Descending Chicago Center
04:02PM 41.9828 -87.6100 270° West 167 192 4,600 -960 Descending Chicago Center
04:03PM 41.9839 -87.6844 271° West 169 194 3,500 -1,080 Descending Chicago Center